sensor_id;sensor_type;location;lat;lon;timestamp;P1;durP1;ratioP1;P2;durP2;ratioP2
24277;SDS011;12394;42.692;23.314;2023-05-27T00:01:41;19.33;;;14.10;;
24277;SDS011;12394;42.692;23.314;2023-05-27T00:04:06;19.70;;;14.43;;
24277;SDS011;12394;42.692;23.314;2023-05-27T00:06:32;20.57;;;13.70;;
24277;SDS011;12394;42.692;23.314;2023-05-27T00:08:57;18.93;;;14.57;;
24277;SDS011;12394;42.692;23.314;2023-05-27T00:11:23;17.17;;;13.83;;
24277;SDS011;12394;42.692;23.314;2023-05-27T00:13:49;21.67;;;14.63;;
24277;SDS011;12394;42.692;23.314;2023-05-27T00:16:14;18.03;;;15.07;;
24277;SDS011;12394;42.692;23.314;2023-05-27T00:18:41;17.37;;;15.17;;
24277;SDS011;12394;42.692;23.314;2023-05-27T00:21:07;24.07;;;15.20;;
24277;SDS011;12394;42.692;23.314;2023-05-27T00:23:32;17.90;;;13.47;;
24277;SDS011;12394;42.692;23.314;2023-05-27T00:25:57;19.17;;;14.10;;
24277;SDS011;12394;42.692;23.314;2023-05-27T00:28:23;14.17;;;10.30;;
24277;SDS011;12394;42.692;23.314;2023-05-27T00:30:48;14.53;;;9.97;;
24277;SDS011;12394;42.692;23.314;2023-05-27T00:33:14;11.13;;;9.63;;
24277;SDS011;12394;42.692;23.314;2023-05-27T00:35:39;12.20;;;9.57;;
24277;SDS011;12394;42.692;23.314;2023-05-27T00:38:05;10.70;;;8.93;;
24277;SDS011;12394;42.692;23.314;2023-05-27T00:40:30;8.43;;;6.63;;
24277;SDS011;12394;42.692;23.314;2023-05-27T00:42:59;11.80;;;7.70;;
24277;SDS011;12394;42.692;23.314;2023-05-27T00:45:24;13.03;;;8.50;;
24277;SDS011;12394;42.692;23.314;2023-05-27T00:47:51;9.97;;;7.83;;
24277;SDS011;12394;42.692;23.314;2023-05-27T00:50:17;12.00;;;7.77;;
24277;SDS011;12394;42.692;23.314;2023-05-27T00:52:43;11.53;;;8.13;;
24277;SDS011;12394;42.692;23.314;2023-05-27T00:55:09;10.53;;;7.73;;
24277;SDS011;12394;42.692;23.314;2023-05-27T00:57:34;8.50;;;7.20;;
24277;SDS011;12394;42.692;23.314;2023-05-27T01:00:00;8.17;;;6.60;;
24277;SDS011;12394;42.692;23.314;2023-05-27T01:02:25;9.57;;;7.53;;
24277;SDS011;12394;42.692;23.314;2023-05-27T01:04:51;8.90;;;7.90;;
24277;SDS011;12394;42.692;23.314;2023-05-27T01:13:00;11.53;;;8.23;;
24277;SDS011;12394;42.692;23.314;2023-05-27T01:15:35;9.23;;;8.20;;
24277;SDS011;12394;42.692;23.314;2023-05-27T01:18:02;9.57;;;7.87;;
24277;SDS011;12394;42.692;23.314;2023-05-27T01:20:28;8.10;;;7.30;;
24277;SDS011;12394;42.692;23.314;2023-05-27T01:22:54;6.50;;;5.80;;
24277;SDS011;12394;42.692;23.314;2023-05-27T01:25:22;9.60;;;6.90;;
24277;SDS011;12394;42.692;23.314;2023-05-27T01:27:48;6.87;;;6.17;;
24277;SDS011;12394;42.692;23.314;2023-05-27T01:30:13;10.70;;;7.50;;
24277;SDS011;12394;42.692;23.314;2023-05-27T01:35:16;8.63;;;7.73;;
24277;SDS011;12394;42.692;23.314;2023-05-27T01:37:47;7.70;;;6.80;;
24277;SDS011;12394;42.692;23.314;2023-05-27T01:40:15;6.53;;;5.83;;
24277;SDS011;12394;42.692;23.314;2023-05-27T01:42:41;7.77;;;5.27;;
24277;SDS011;12394;42.692;23.314;2023-05-27T01:45:09;7.70;;;4.97;;
24277;SDS011;12394;42.692;23.314;2023-05-27T01:47:35;6.07;;;5.27;;
24277;SDS011;12394;42.692;23.314;2023-05-27T01:50:01;6.17;;;5.27;;
24277;SDS011;12394;42.692;23.314;2023-05-27T01:52:27;6.83;;;5.30;;
24277;SDS011;12394;42.692;23.314;2023-05-27T01:54:52;6.90;;;4.80;;
24277;SDS011;12394;42.692;23.314;2023-05-27T01:57:18;8.00;;;5.10;;
24277;SDS011;12394;42.692;23.314;2023-05-27T01:59:44;6.17;;;5.30;;
24277;SDS011;12394;42.692;23.314;2023-05-27T02:02:10;7.20;;;5.23;;
24277;SDS011;12394;42.692;23.314;2023-05-27T02:04:35;9.03;;;6.00;;
24277;SDS011;12394;42.692;23.314;2023-05-27T02:07:01;6.00;;;5.40;;
24277;SDS011;12394;42.692;23.314;2023-05-27T02:09:26;8.40;;;7.30;;
24277;SDS011;12394;42.692;23.314;2023-05-27T02:11:51;11.63;;;8.67;;
24277;SDS011;12394;42.692;23.314;2023-05-27T02:14:17;13.03;;;11.47;;
24277;SDS011;12394;42.692;23.314;2023-05-27T02:16:42;19.07;;;13.37;;
24277;SDS011;12394;42.692;23.314;2023-05-27T02:19:08;18.77;;;14.50;;
24277;SDS011;12394;42.692;23.314;2023-05-27T02:21:34;18.03;;;14.40;;
24277;SDS011;12394;42.692;23.314;2023-05-27T02:24:00;20.27;;;14.47;;
24277;SDS011;12394;42.692;23.314;2023-05-27T02:26:26;21.83;;;13.30;;
24277;SDS011;12394;42.692;23.314;2023-05-27T02:28:51;14.90;;;12.93;;
24277;SDS011;12394;42.692;23.314;2023-05-27T02:31:17;12.90;;;11.17;;
24277;SDS011;12394;42.692;23.314;2023-05-27T02:33:43;18.37;;;12.97;;
24277;SDS011;12394;42.692;23.314;2023-05-27T02:36:08;17.93;;;12.07;;
24277;SDS011;12394;42.692;23.314;2023-05-27T02:38:34;14.17;;;11.37;;
24277;SDS011;12394;42.692;23.314;2023-05-27T02:40:59;16.73;;;13.70;;
24277;SDS011;12394;42.692;23.314;2023-05-27T02:43:25;15.80;;;13.57;;
24277;SDS011;12394;42.692;23.314;2023-05-27T02:45:50;16.10;;;11.77;;
24277;SDS011;12394;42.692;23.314;2023-05-27T02:48:15;15.13;;;12.83;;
24277;SDS011;12394;42.692;23.314;2023-05-27T02:50:41;17.90;;;11.63;;
24277;SDS011;12394;42.692;23.314;2023-05-27T02:53:07;14.57;;;11.20;;
24277;SDS011;12394;42.692;23.314;2023-05-27T02:55:32;15.97;;;12.57;;
24277;SDS011;12394;42.692;23.314;2023-05-27T02:57:58;18.93;;;13.97;;
24277;SDS011;12394;42.692;23.314;2023-05-27T03:02:58;14.43;;;12.57;;
24277;SDS011;12394;42.692;23.314;2023-05-27T03:05:24;15.43;;;12.53;;
24277;SDS011;12394;42.692;23.314;2023-05-27T03:07:49;18.17;;;12.63;;
24277;SDS011;12394;42.692;23.314;2023-05-27T03:10:14;21.43;;;13.43;;
24277;SDS011;12394;42.692;23.314;2023-05-27T03:12:40;17.83;;;13.57;;
24277;SDS011;12394;42.692;23.314;2023-05-27T03:15:05;14.83;;;12.50;;
24277;SDS011;12394;42.692;23.314;2023-05-27T03:17:33;16.33;;;12.73;;
24277;SDS011;12394;42.692;23.314;2023-05-27T03:20:01;17.13;;;13.07;;
24277;SDS011;12394;42.692;23.314;2023-05-27T03:22:26;18.77;;;13.13;;
24277;SDS011;12394;42.692;23.314;2023-05-27T03:24:51;17.73;;;14.53;;
24277;SDS011;12394;42.692;23.314;2023-05-27T03:27:19;16.60;;;13.77;;
24277;SDS011;12394;42.692;23.314;2023-05-27T03:29:44;16.70;;;13.77;;
24277;SDS011;12394;42.692;23.314;2023-05-27T03:32:09;18.10;;;14.27;;
24277;SDS011;12394;42.692;23.314;2023-05-27T03:34:35;19.23;;;15.07;;
24277;SDS011;12394;42.692;23.314;2023-05-27T03:37:00;22.17;;;13.93;;
24277;SDS011;12394;42.692;23.314;2023-05-27T03:39:25;19.27;;;14.43;;
24277;SDS011;12394;42.692;23.314;2023-05-27T03:41:51;18.80;;;14.53;;
24277;SDS011;12394;42.692;23.314;2023-05-27T03:44:16;18.70;;;15.33;;
24277;SDS011;12394;42.692;23.314;2023-05-27T03:46:41;18.83;;;14.63;;
24277;SDS011;12394;42.692;23.314;2023-05-27T03:49:07;17.70;;;14.77;;
24277;SDS011;12394;42.692;23.314;2023-05-27T03:51:32;19.03;;;14.23;;
24277;SDS011;12394;42.692;23.314;2023-05-27T03:53:58;20.47;;;14.73;;
24277;SDS011;12394;42.692;23.314;2023-05-27T03:56:23;19.03;;;14.10;;
24277;SDS011;12394;42.692;23.314;2023-05-27T03:58:49;16.77;;;14.33;;
24277;SDS011;12394;42.692;23.314;2023-05-27T04:01:15;15.40;;;13.67;;
24277;SDS011;12394;42.692;23.314;2023-05-27T04:03:41;14.03;;;12.63;;
24277;SDS011;12394;42.692;23.314;2023-05-27T04:06:08;16.97;;;12.17;;
24277;SDS011;12394;42.692;23.314;2023-05-27T04:08:34;17.13;;;12.90;;
24277;SDS011;12394;42.692;23.314;2023-05-27T04:11:01;18.07;;;12.47;;
24277;SDS011;12394;42.692;23.314;2023-05-27T04:13:27;18.13;;;12.10;;
24277;SDS011;12394;42.692;23.314;2023-05-27T04:15:52;14.50;;;13.00;;
24277;SDS011;12394;42.692;23.314;2023-05-27T04:18:18;14.23;;;12.57;;
24277;SDS011;12394;42.692;23.314;2023-05-27T04:20:45;13.70;;;12.03;;
24277;SDS011;12394;42.692;23.314;2023-05-27T04:23:12;12.33;;;11.03;;
24277;SDS011;12394;42.692;23.314;2023-05-27T04:25:37;12.80;;;10.30;;
24277;SDS011;12394;42.692;23.314;2023-05-27T04:28:04;13.53;;;9.40;;
24277;SDS011;12394;42.692;23.314;2023-05-27T04:30:33;9.50;;;8.50;;
24277;SDS011;12394;42.692;23.314;2023-05-27T04:33:02;10.20;;;9.20;;
24277;SDS011;12394;42.692;23.314;2023-05-27T04:35:28;8.57;;;7.67;;
24277;SDS011;12394;42.692;23.314;2023-05-27T04:37:56;9.50;;;8.53;;
24277;SDS011;12394;42.692;23.314;2023-05-27T04:40:24;9.67;;;7.47;;
24277;SDS011;12394;42.692;23.314;2023-05-27T04:42:50;9.80;;;7.10;;
24277;SDS011;12394;42.692;23.314;2023-05-27T04:45:15;9.83;;;7.17;;
24277;SDS011;12394;42.692;23.314;2023-05-27T04:47:41;12.43;;;7.50;;
24277;SDS011;12394;42.692;23.314;2023-05-27T04:50:08;9.37;;;8.10;;
24277;SDS011;12394;42.692;23.314;2023-05-27T04:52:33;9.17;;;7.13;;
24277;SDS011;12394;42.692;23.314;2023-05-27T04:55:06;7.63;;;6.83;;
24277;SDS011;12394;42.692;23.314;2023-05-27T04:57:33;7.83;;;7.07;;
24277;SDS011;12394;42.692;23.314;2023-05-27T04:59:58;8.63;;;7.77;;
24277;SDS011;12394;42.692;23.314;2023-05-27T05:02:27;8.03;;;7.00;;
24277;SDS011;12394;42.692;23.314;2023-05-27T05:05:02;9.03;;;7.70;;
24277;SDS011;12394;42.692;23.314;2023-05-27T05:07:29;8.67;;;7.70;;
24277;SDS011;12394;42.692;23.314;2023-05-27T05:09:54;10.43;;;7.47;;
24277;SDS011;12394;42.692;23.314;2023-05-27T05:12:20;13.37;;;7.30;;
24277;SDS011;12394;42.692;23.314;2023-05-27T05:14:45;14.13;;;7.20;;
24277;SDS011;12394;42.692;23.314;2023-05-27T05:17:11;8.13;;;6.50;;
24277;SDS011;12394;42.692;23.314;2023-05-27T05:19:36;8.47;;;6.47;;
24277;SDS011;12394;42.692;23.314;2023-05-27T05:22:02;7.50;;;6.07;;
24277;SDS011;12394;42.692;23.314;2023-05-27T05:24:27;11.63;;;6.33;;
24277;SDS011;12394;42.692;23.314;2023-05-27T05:26:52;9.67;;;7.03;;
24277;SDS011;12394;42.692;23.314;2023-05-27T05:29:18;9.97;;;6.83;;
24277;SDS011;12394;42.692;23.314;2023-05-27T05:31:43;8.73;;;6.57;;
24277;SDS011;12394;42.692;23.314;2023-05-27T05:34:10;11.00;;;6.30;;
24277;SDS011;12394;42.692;23.314;2023-05-27T05:36:36;15.13;;;6.40;;
24277;SDS011;12394;42.692;23.314;2023-05-27T05:39:01;9.47;;;7.17;;
24277;SDS011;12394;42.692;23.314;2023-05-27T05:41:28;9.57;;;6.93;;
24277;SDS011;12394;42.692;23.314;2023-05-27T05:43:53;8.87;;;6.63;;
24277;SDS011;12394;42.692;23.314;2023-05-27T05:46:19;10.27;;;7.10;;
24277;SDS011;12394;42.692;23.314;2023-05-27T05:48:44;10.03;;;7.23;;
24277;SDS011;12394;42.692;23.314;2023-05-27T05:51:10;12.93;;;8.27;;
24277;SDS011;12394;42.692;23.314;2023-05-27T05:53:35;9.47;;;7.00;;
24277;SDS011;12394;42.692;23.314;2023-05-27T05:56:01;8.80;;;7.90;;
24277;SDS011;12394;42.692;23.314;2023-05-27T05:58:26;7.97;;;7.17;;
24277;SDS011;12394;42.692;23.314;2023-05-27T06:00:52;16.97;;;8.47;;
24277;SDS011;12394;42.692;23.314;2023-05-27T06:03:17;18.40;;;8.90;;
24277;SDS011;12394;42.692;23.314;2023-05-27T06:05:42;21.53;;;9.40;;
24277;SDS011;12394;42.692;23.314;2023-05-27T06:08:08;19.23;;;9.30;;
24277;SDS011;12394;42.692;23.314;2023-05-27T06:10:34;12.63;;;8.33;;
24277;SDS011;12394;42.692;23.314;2023-05-27T06:12:59;12.77;;;8.77;;
24277;SDS011;12394;42.692;23.314;2023-05-27T06:15:25;13.40;;;8.23;;
24277;SDS011;12394;42.692;23.314;2023-05-27T06:17:52;11.77;;;8.23;;
24277;SDS011;12394;42.692;23.314;2023-05-27T06:20:18;12.57;;;7.97;;
24277;SDS011;12394;42.692;23.314;2023-05-27T06:22:43;13.87;;;8.10;;
24277;SDS011;12394;42.692;23.314;2023-05-27T06:25:10;8.83;;;7.63;;
24277;SDS011;12394;42.692;23.314;2023-05-27T06:27:36;11.70;;;7.93;;
24277;SDS011;12394;42.692;23.314;2023-05-27T06:30:01;11.17;;;7.47;;
24277;SDS011;12394;42.692;23.314;2023-05-27T06:32:26;15.10;;;8.67;;
24277;SDS011;12394;42.692;23.314;2023-05-27T06:34:52;13.23;;;7.90;;
24277;SDS011;12394;42.692;23.314;2023-05-27T06:37:17;12.60;;;7.77;;
24277;SDS011;12394;42.692;23.314;2023-05-27T06:39:43;13.03;;;7.50;;
24277;SDS011;12394;42.692;23.314;2023-05-27T06:42:08;11.93;;;7.23;;
24277;SDS011;12394;42.692;23.314;2023-05-27T06:44:33;9.10;;;7.30;;
24277;SDS011;12394;42.692;23.314;2023-05-27T06:46:59;16.23;;;8.40;;
24277;SDS011;12394;42.692;23.314;2023-05-27T06:49:24;19.33;;;8.23;;
24277;SDS011;12394;42.692;23.314;2023-05-27T06:51:49;15.87;;;8.90;;
24277;SDS011;12394;42.692;23.314;2023-05-27T06:54:15;9.87;;;8.13;;
24277;SDS011;12394;42.692;23.314;2023-05-27T06:56:40;12.47;;;8.37;;
24277;SDS011;12394;42.692;23.314;2023-05-27T06:59:05;14.87;;;8.90;;
24277;SDS011;12394;42.692;23.314;2023-05-27T07:01:31;10.77;;;8.87;;
24277;SDS011;12394;42.692;23.314;2023-05-27T07:03:56;12.23;;;8.63;;
24277;SDS011;12394;42.692;23.314;2023-05-27T07:06:22;15.33;;;9.27;;
24277;SDS011;12394;42.692;23.314;2023-05-27T07:08:50;13.13;;;8.40;;
24277;SDS011;12394;42.692;23.314;2023-05-27T07:11:16;15.27;;;8.53;;
24277;SDS011;12394;42.692;23.314;2023-05-27T07:13:41;11.37;;;8.30;;
24277;SDS011;12394;42.692;23.314;2023-05-27T07:16:06;13.53;;;8.90;;
24277;SDS011;12394;42.692;23.314;2023-05-27T07:18:32;11.43;;;8.20;;
24277;SDS011;12394;42.692;23.314;2023-05-27T07:20:57;10.37;;;8.37;;
24277;SDS011;12394;42.692;23.314;2023-05-27T07:23:23;17.20;;;9.13;;
24277;SDS011;12394;42.692;23.314;2023-05-27T07:25:48;13.80;;;8.87;;
24277;SDS011;12394;42.692;23.314;2023-05-27T07:28:13;11.90;;;9.37;;
24277;SDS011;12394;42.692;23.314;2023-05-27T07:30:39;19.97;;;9.17;;
24277;SDS011;12394;42.692;23.314;2023-05-27T07:33:04;16.73;;;9.50;;
24277;SDS011;12394;42.692;23.314;2023-05-27T07:35:30;24.80;;;9.80;;
24277;SDS011;12394;42.692;23.314;2023-05-27T07:37:55;12.77;;;8.00;;
24277;SDS011;12394;42.692;23.314;2023-05-27T07:40:20;18.97;;;9.13;;
24277;SDS011;12394;42.692;23.314;2023-05-27T07:42:46;11.67;;;8.67;;
24277;SDS011;12394;42.692;23.314;2023-05-27T07:45:11;11.30;;;7.37;;
24277;SDS011;12394;42.692;23.314;2023-05-27T07:47:37;12.10;;;8.60;;
24277;SDS011;12394;42.692;23.314;2023-05-27T07:50:02;12.53;;;8.40;;
24277;SDS011;12394;42.692;23.314;2023-05-27T07:52:28;12.43;;;8.00;;
24277;SDS011;12394;42.692;23.314;2023-05-27T07:54:54;19.13;;;9.00;;
24277;SDS011;12394;42.692;23.314;2023-05-27T07:57:19;12.47;;;7.70;;
24277;SDS011;12394;42.692;23.314;2023-05-27T07:59:44;8.50;;;6.90;;
24277;SDS011;12394;42.692;23.314;2023-05-27T08:02:10;17.67;;;11.27;;
24277;SDS011;12394;42.692;23.314;2023-05-27T08:04:35;14.20;;;8.77;;
24277;SDS011;12394;42.692;23.314;2023-05-27T08:07:00;12.10;;;7.30;;
24277;SDS011;12394;42.692;23.314;2023-05-27T08:09:26;10.87;;;7.90;;
24277;SDS011;12394;42.692;23.314;2023-05-27T08:11:51;9.17;;;6.90;;
24277;SDS011;12394;42.692;23.314;2023-05-27T08:14:16;13.67;;;7.20;;
24277;SDS011;12394;42.692;23.314;2023-05-27T08:16:42;11.07;;;6.73;;
24277;SDS011;12394;42.692;23.314;2023-05-27T08:19:07;9.33;;;6.87;;
24277;SDS011;12394;42.692;23.314;2023-05-27T08:21:33;9.60;;;7.20;;
24277;SDS011;12394;42.692;23.314;2023-05-27T08:23:58;10.20;;;5.70;;
24277;SDS011;12394;42.692;23.314;2023-05-27T08:26:24;12.20;;;6.67;;
24277;SDS011;12394;42.692;23.314;2023-05-27T08:28:53;6.67;;;5.70;;
24277;SDS011;12394;42.692;23.314;2023-05-27T08:31:19;9.07;;;7.03;;
24277;SDS011;12394;42.692;23.314;2023-05-27T08:33:44;8.50;;;7.10;;
24277;SDS011;12394;42.692;23.314;2023-05-27T08:36:10;8.90;;;7.10;;
24277;SDS011;12394;42.692;23.314;2023-05-27T08:38:36;9.00;;;6.33;;
24277;SDS011;12394;42.692;23.314;2023-05-27T08:41:03;14.70;;;7.10;;
24277;SDS011;12394;42.692;23.314;2023-05-27T08:43:28;11.80;;;6.47;;
24277;SDS011;12394;42.692;23.314;2023-05-27T08:45:54;8.50;;;6.70;;
24277;SDS011;12394;42.692;23.314;2023-05-27T08:48:21;11.57;;;7.90;;
24277;SDS011;12394;42.692;23.314;2023-05-27T08:50:46;8.73;;;6.67;;
24277;SDS011;12394;42.692;23.314;2023-05-27T08:53:12;11.63;;;7.60;;
24277;SDS011;12394;42.692;23.314;2023-05-27T08:55:39;11.50;;;7.40;;
24277;SDS011;12394;42.692;23.314;2023-05-27T08:58:05;9.40;;;6.97;;
24277;SDS011;12394;42.692;23.314;2023-05-27T09:00:32;8.93;;;6.33;;
24277;SDS011;12394;42.692;23.314;2023-05-27T09:02:57;12.07;;;6.47;;
24277;SDS011;12394;42.692;23.314;2023-05-27T09:05:24;12.77;;;7.13;;
24277;SDS011;12394;42.692;23.314;2023-05-27T09:07:51;17.30;;;6.03;;
24277;SDS011;12394;42.692;23.314;2023-05-27T09:10:16;9.63;;;7.00;;
24277;SDS011;12394;42.692;23.314;2023-05-27T09:12:43;10.73;;;7.33;;
24277;SDS011;12394;42.692;23.314;2023-05-27T09:15:10;10.67;;;6.83;;
24277;SDS011;12394;42.692;23.314;2023-05-27T09:17:43;11.67;;;5.87;;
24277;SDS011;12394;42.692;23.314;2023-05-27T09:20:09;8.07;;;5.90;;
24277;SDS011;12394;42.692;23.314;2023-05-27T09:22:38;5.67;;;5.07;;
24277;SDS011;12394;42.692;23.314;2023-05-27T09:25:05;10.17;;;5.40;;
24277;SDS011;12394;42.692;23.314;2023-05-27T09:27:31;8.47;;;5.90;;
24277;SDS011;12394;42.692;23.314;2023-05-27T09:29:57;7.67;;;5.33;;
24277;SDS011;12394;42.692;23.314;2023-05-27T09:32:31;10.87;;;6.00;;
24277;SDS011;12394;42.692;23.314;2023-05-27T09:34:58;11.27;;;5.70;;
24277;SDS011;12394;42.692;23.314;2023-05-27T09:37:28;8.80;;;5.50;;
24277;SDS011;12394;42.692;23.314;2023-05-27T09:39:59;8.23;;;5.97;;
24277;SDS011;12394;42.692;23.314;2023-05-27T09:45:12;8.93;;;6.13;;
24277;SDS011;12394;42.692;23.314;2023-05-27T09:47:43;9.50;;;7.60;;
24277;SDS011;12394;42.692;23.314;2023-05-27T09:50:15;7.87;;;6.77;;
24277;SDS011;12394;42.692;23.314;2023-05-27T09:52:42;10.67;;;6.67;;
24277;SDS011;12394;42.692;23.314;2023-05-27T09:55:09;8.80;;;6.00;;
24277;SDS011;12394;42.692;23.314;2023-05-27T09:57:36;7.00;;;5.57;;
24277;SDS011;12394;42.692;23.314;2023-05-27T10:00:05;7.63;;;6.23;;
24277;SDS011;12394;42.692;23.314;2023-05-27T10:02:44;5.70;;;4.83;;
24277;SDS011;12394;42.692;23.314;2023-05-27T10:05:11;7.77;;;5.63;;
24277;SDS011;12394;42.692;23.314;2023-05-27T10:07:38;7.67;;;6.13;;
24277;SDS011;12394;42.692;23.314;2023-05-27T10:10:06;8.50;;;5.13;;
24277;SDS011;12394;42.692;23.314;2023-05-27T10:12:33;9.63;;;5.80;;
24277;SDS011;12394;42.692;23.314;2023-05-27T10:15:01;10.57;;;5.87;;
24277;SDS011;12394;42.692;23.314;2023-05-27T10:17:26;13.53;;;5.33;;
24277;SDS011;12394;42.692;23.314;2023-05-27T10:19:58;10.13;;;7.07;;
24277;SDS011;12394;42.692;23.314;2023-05-27T10:22:23;9.30;;;5.27;;
24277;SDS011;12394;42.692;23.314;2023-05-27T10:24:49;8.43;;;4.90;;
24277;SDS011;12394;42.692;23.314;2023-05-27T10:27:15;5.20;;;4.70;;
24277;SDS011;12394;42.692;23.314;2023-05-27T10:29:40;9.57;;;5.67;;
24277;SDS011;12394;42.692;23.314;2023-05-27T10:32:06;6.10;;;4.80;;
24277;SDS011;12394;42.692;23.314;2023-05-27T10:34:41;5.87;;;4.83;;
24277;SDS011;12394;42.692;23.314;2023-05-27T10:37:08;7.10;;;4.93;;
24277;SDS011;12394;42.692;23.314;2023-05-27T10:39:35;5.33;;;4.83;;
24277;SDS011;12394;42.692;23.314;2023-05-27T10:42:01;7.93;;;5.13;;
24277;SDS011;12394;42.692;23.314;2023-05-27T10:44:33;5.60;;;4.53;;
24277;SDS011;12394;42.692;23.314;2023-05-27T10:47:00;6.03;;;4.37;;
24277;SDS011;12394;42.692;23.314;2023-05-27T10:49:27;7.33;;;4.90;;
24277;SDS011;12394;42.692;23.314;2023-05-27T10:52:00;8.67;;;5.07;;
24277;SDS011;12394;42.692;23.314;2023-05-27T10:54:35;7.23;;;6.17;;
24277;SDS011;12394;42.692;23.314;2023-05-27T10:57:01;7.23;;;4.90;;
24277;SDS011;12394;42.692;23.314;2023-05-27T10:59:27;7.67;;;4.97;;
24277;SDS011;12394;42.692;23.314;2023-05-27T11:02:03;5.70;;;4.63;;
24277;SDS011;12394;42.692;23.314;2023-05-27T11:04:34;7.17;;;4.80;;
24277;SDS011;12394;42.692;23.314;2023-05-27T11:07:00;6.00;;;5.40;;
24277;SDS011;12394;42.692;23.314;2023-05-27T11:09:26;8.27;;;5.07;;
24277;SDS011;12394;42.692;23.314;2023-05-27T11:11:52;10.97;;;5.47;;
24277;SDS011;12394;42.692;23.314;2023-05-27T11:14:17;8.27;;;5.23;;
24277;SDS011;12394;42.692;23.314;2023-05-27T11:16:49;5.27;;;4.77;;
24277;SDS011;12394;42.692;23.314;2023-05-27T11:19:20;7.27;;;4.80;;
24277;SDS011;12394;42.692;23.314;2023-05-27T11:21:46;7.90;;;5.30;;
24277;SDS011;12394;42.692;23.314;2023-05-27T11:24:19;6.77;;;4.70;;
24277;SDS011;12394;42.692;23.314;2023-05-27T11:26:45;6.40;;;4.80;;
24277;SDS011;12394;42.692;23.314;2023-05-27T11:29:13;6.83;;;4.57;;
24277;SDS011;12394;42.692;23.314;2023-05-27T11:31:39;6.00;;;4.50;;
24277;SDS011;12394;42.692;23.314;2023-05-27T11:34:12;5.03;;;4.37;;
24277;SDS011;12394;42.692;23.314;2023-05-27T11:36:39;7.20;;;4.93;;
24277;SDS011;12394;42.692;23.314;2023-05-27T11:39:04;6.43;;;4.77;;
24277;SDS011;12394;42.692;23.314;2023-05-27T11:41:30;8.33;;;4.93;;
24277;SDS011;12394;42.692;23.314;2023-05-27T11:46:34;6.90;;;4.93;;
24277;SDS011;12394;42.692;23.314;2023-05-27T11:49:00;7.40;;;5.30;;
24277;SDS011;12394;42.692;23.314;2023-05-27T11:51:28;5.17;;;4.27;;
24277;SDS011;12394;42.692;23.314;2023-05-27T11:53:54;7.40;;;4.43;;
24277;SDS011;12394;42.692;23.314;2023-05-27T11:56:19;5.33;;;4.83;;
24277;SDS011;12394;42.692;23.314;2023-05-27T11:58:45;5.53;;;4.73;;
24277;SDS011;12394;42.692;23.314;2023-05-27T12:01:12;6.80;;;5.20;;
24277;SDS011;12394;42.692;23.314;2023-05-27T12:03:57;5.00;;;4.50;;
24277;SDS011;12394;42.692;23.314;2023-05-27T12:06:23;8.37;;;5.37;;
24277;SDS011;12394;42.692;23.314;2023-05-27T12:08:48;5.87;;;4.50;;
24277;SDS011;12394;42.692;23.314;2023-05-27T12:11:13;9.63;;;5.13;;
24277;SDS011;12394;42.692;23.314;2023-05-27T12:13:39;7.20;;;5.10;;
24277;SDS011;12394;42.692;23.314;2023-05-27T12:16:04;7.07;;;5.23;;
24277;SDS011;12394;42.692;23.314;2023-05-27T12:18:30;7.33;;;5.00;;
24277;SDS011;12394;42.692;23.314;2023-05-27T12:20:55;10.37;;;4.80;;
24277;SDS011;12394;42.692;23.314;2023-05-27T12:23:21;5.40;;;4.77;;
24277;SDS011;12394;42.692;23.314;2023-05-27T12:25:47;5.77;;;4.30;;
24277;SDS011;12394;42.692;23.314;2023-05-27T12:28:12;7.60;;;4.70;;
24277;SDS011;12394;42.692;23.314;2023-05-27T12:30:38;4.97;;;4.00;;
24277;SDS011;12394;42.692;23.314;2023-05-27T12:33:03;6.17;;;4.57;;
24277;SDS011;12394;42.692;23.314;2023-05-27T12:35:32;7.20;;;4.60;;
24277;SDS011;12394;42.692;23.314;2023-05-27T12:37:58;6.90;;;4.83;;
24277;SDS011;12394;42.692;23.314;2023-05-27T12:40:25;5.23;;;4.73;;
24277;SDS011;12394;42.692;23.314;2023-05-27T12:42:51;5.13;;;4.17;;
24277;SDS011;12394;42.692;23.314;2023-05-27T12:45:17;10.90;;;5.30;;
24277;SDS011;12394;42.692;23.314;2023-05-27T12:47:42;6.83;;;4.93;;
24277;SDS011;12394;42.692;23.314;2023-05-27T12:50:08;6.00;;;4.70;;
24277;SDS011;12394;42.692;23.314;2023-05-27T12:52:33;6.53;;;4.70;;
24277;SDS011;12394;42.692;23.314;2023-05-27T12:55:00;10.63;;;5.07;;
24277;SDS011;12394;42.692;23.314;2023-05-27T12:57:26;7.13;;;5.40;;
24277;SDS011;12394;42.692;23.314;2023-05-27T12:59:51;6.10;;;5.07;;
24277;SDS011;12394;42.692;23.314;2023-05-27T13:02:17;9.27;;;4.80;;
24277;SDS011;12394;42.692;23.314;2023-05-27T13:04:42;7.87;;;5.00;;
24277;SDS011;12394;42.692;23.314;2023-05-27T13:07:09;5.83;;;4.63;;
24277;SDS011;12394;42.692;23.314;2023-05-27T13:09:36;5.73;;;4.23;;
24277;SDS011;12394;42.692;23.314;2023-05-27T13:12:02;7.33;;;4.13;;
24277;SDS011;12394;42.692;23.314;2023-05-27T13:14:29;6.27;;;4.70;;
24277;SDS011;12394;42.692;23.314;2023-05-27T13:16:54;5.50;;;4.70;;
24277;SDS011;12394;42.692;23.314;2023-05-27T13:19:20;5.47;;;3.97;;
24277;SDS011;12394;42.692;23.314;2023-05-27T13:21:45;5.87;;;4.47;;
24277;SDS011;12394;42.692;23.314;2023-05-27T13:24:12;4.43;;;4.03;;
24277;SDS011;12394;42.692;23.314;2023-05-27T13:26:37;6.10;;;5.10;;
24277;SDS011;12394;42.692;23.314;2023-05-27T13:29:03;6.57;;;5.03;;
24277;SDS011;12394;42.692;23.314;2023-05-27T13:31:28;6.37;;;4.70;;
24277;SDS011;12394;42.692;23.314;2023-05-27T13:33:54;8.20;;;4.83;;
24277;SDS011;12394;42.692;23.314;2023-05-27T13:36:19;9.27;;;5.30;;
24277;SDS011;12394;42.692;23.314;2023-05-27T13:38:44;4.90;;;4.50;;
24277;SDS011;12394;42.692;23.314;2023-05-27T13:41:10;5.27;;;4.60;;
24277;SDS011;12394;42.692;23.314;2023-05-27T13:43:35;4.80;;;4.13;;
24277;SDS011;12394;42.692;23.314;2023-05-27T13:46:01;8.00;;;4.90;;
24277;SDS011;12394;42.692;23.314;2023-05-27T13:48:26;6.97;;;5.10;;
24277;SDS011;12394;42.692;23.314;2023-05-27T13:50:51;6.70;;;4.93;;
24277;SDS011;12394;42.692;23.314;2023-05-27T13:53:17;6.40;;;4.67;;
24277;SDS011;12394;42.692;23.314;2023-05-27T13:55:42;10.23;;;4.70;;
24277;SDS011;12394;42.692;23.314;2023-05-27T13:58:08;6.83;;;4.60;;
24277;SDS011;12394;42.692;23.314;2023-05-27T14:00:34;5.87;;;4.67;;
24277;SDS011;12394;42.692;23.314;2023-05-27T14:02:59;8.63;;;4.67;;
24277;SDS011;12394;42.692;23.314;2023-05-27T14:05:25;5.70;;;4.43;;
24277;SDS011;12394;42.692;23.314;2023-05-27T14:07:54;4.80;;;4.40;;
24277;SDS011;12394;42.692;23.314;2023-05-27T14:10:20;5.63;;;4.70;;
24277;SDS011;12394;42.692;23.314;2023-05-27T14:12:46;7.53;;;4.50;;
24277;SDS011;12394;42.692;23.314;2023-05-27T14:15:11;4.63;;;4.20;;
24277;SDS011;12394;42.692;23.314;2023-05-27T14:17:37;6.10;;;4.60;;
24277;SDS011;12394;42.692;23.314;2023-05-27T14:20:03;5.83;;;5.20;;
24277;SDS011;12394;42.692;23.314;2023-05-27T14:22:35;7.70;;;4.40;;
24277;SDS011;12394;42.692;23.314;2023-05-27T14:25:05;7.50;;;4.43;;
24277;SDS011;12394;42.692;23.314;2023-05-27T14:27:32;9.87;;;4.67;;
24277;SDS011;12394;42.692;23.314;2023-05-27T14:29:58;6.27;;;4.73;;
24277;SDS011;12394;42.692;23.314;2023-05-27T14:32:23;6.67;;;4.47;;
24277;SDS011;12394;42.692;23.314;2023-05-27T14:34:48;7.20;;;4.53;;
24277;SDS011;12394;42.692;23.314;2023-05-27T14:37:14;10.80;;;4.80;;